Time;durP1;ratioP1;P1;durP2;ratioP2;P2;SDS_P1;SDS_P2;PMS_P1;PMS_P2;Temp;Humidity;BMP_temperature;BMP_pressure;BME280_temperature;BME280_humidity;BME280_pressure;Samples;Min_cycle;Max_cycle;Signal;HPM_P1;HPM_P2
2021/08/28 00:00:37;;;;;;;;;1.50;1.00;;;;;17.97;53.36;101367.25;5076203;28;47637;-85
2021/08/28 00:03:02;;;;;;;;;3.75;2.00;;;;;17.96;53.81;101376.19;5043138;28;47980;-85
2021/08/28 00:05:28;;;;;;;;;2.00;2.00;;;;;18.00;53.87;101381.06;5060884;28;45920;-85
2021/08/28 00:07:56;;;;;;;;;2.00;1.00;;;;;18.06;54.04;101389.44;5047040;28;45707;-85
2021/08/28 00:10:23;;;;;;;;;2.25;1.50;;;;;18.02;54.41;101395.03;5046078;28;48527;-84
2021/08/28 00:12:49;;;;;;;;;2.00;1.75;;;;;17.90;54.33;101385.53;5042402;28;47310;-85
2021/08/28 00:15:15;;;;;;;;;2.00;1.75;;;;;17.78;54.47;101361.91;5039489;28;45594;-86
2021/08/28 00:17:41;;;;;;;;;1.50;1.50;;;;;18.03;54.77;101409.94;5057624;28;45550;-85
2021/08/28 00:20:09;;;;;;;;;3.25;2.25;;;;;17.76;54.46;101372.63;5058326;28;46389;-86
2021/08/28 00:22:37;;;;;;;;;3.75;2.75;;;;;17.97;54.82;101402.56;5040870;28;46697;-86
2021/08/28 00:28:24;;;;;;;;;2.00;2.00;;;;;17.59;55.32;101358.25;5057840;28;45879;-86
2021/08/28 00:30:49;;;;;;;;;3.50;2.00;;;;;17.61;55.78;101363.41;5039407;28;47329;-84
2021/08/28 00:33:16;;;;;;;;;2.50;2.00;;;;;17.59;55.30;101358.25;5040197;28;47346;-85
2021/08/28 00:35:41;;;;;;;;;2.00;1.75;;;;;17.65;55.33;101374.59;5058510;28;45843;-85
2021/08/28 00:38:08;;;;;;;;;4.75;2.50;;;;;17.51;55.47;101359.88;5073889;28;45832;-87
2021/08/28 00:40:34;;;;;;;;;3.50;2.25;;;;;17.24;55.69;101325.19;5039595;28;48458;-85
2021/08/28 00:43:00;;;;;;;;;5.00;2.75;;;;;17.71;56.12;101403.19;5057160;28;45878;-84
2021/08/28 00:45:38;;;;;;;;;2.00;1.75;;;;;17.60;55.71;101386.41;5058122;28;45690;-85
2021/08/28 00:48:05;;;;;;;;;4.00;2.25;;;;;17.48;56.21;101381.34;5060639;28;45764;-87
2021/08/28 00:50:33;;;;;;;;;3.00;2.00;;;;;17.19;56.36;101341.50;5060253;28;45653;-85
2021/08/28 00:53:00;;;;;;;;;3.50;2.00;;;;;17.60;56.63;101409.44;5061137;28;45607;-85
2021/08/28 00:58:48;;;;;;;;;3.50;2.00;;;;;17.53;56.46;101398.50;5062853;28;45625;-85
2021/08/28 01:01:18;;;;;;;;;3.00;2.00;;;;;17.34;57.03;101365.78;5042026;28;47546;-85
2021/08/28 01:03:49;;;;;;;;;2.25;2.00;;;;;17.10;57.05;101335.19;5075224;28;46070;-85
2021/08/28 01:06:21;;;;;;;;;4.00;2.50;;;;;17.30;57.03;101380.28;5059399;28;45638;-84
2021/08/28 01:08:53;;;;;;;;;4.00;2.50;;;;;17.10;56.80;101343.16;5039342;28;45616;-85
2021/08/28 01:11:36;;;;;;;;;3.00;2.00;;;;;17.40;57.13;101394.41;5038918;28;48769;-84
2021/08/28 01:14:12;;;;;;;;;5.25;3.00;;;;;17.36;57.59;101396.50;5057024;28;46434;-85
2021/08/28 01:16:39;;;;;;;;;4.00;1.25;;;;;17.34;57.93;101394.94;5038689;28;45978;-85
2021/08/28 01:19:04;;;;;;;;;2.00;2.00;;;;;17.21;57.96;101366.03;5057512;28;45805;-83
2021/08/28 01:21:37;;;;;;;;;3.00;2.00;;;;;17.04;57.66;101359.56;5058556;28;45677;-84
2021/08/28 01:24:05;;;;;;;;;2.00;2.00;;;;;17.09;57.69;101361.81;5039896;28;47070;-83
2021/08/28 01:26:41;;;;;;;;;5.75;2.00;;;;;16.97;58.27;101346.97;5058642;28;45957;-86
2021/08/28 01:29:23;;;;;;;;;3.50;2.00;;;;;17.19;58.55;101386.50;5057135;28;45611;-85
2021/08/28 01:31:51;;;;;;;;;3.50;2.00;;;;;17.18;58.36;101385.69;5023204;28;46644;-85
2021/08/28 01:34:18;;;;;;;;;4.50;2.25;;;;;16.86;58.52;101331.16;5057007;28;46358;-87
2021/08/28 01:36:47;;;;;;;;;4.50;2.00;;;;;17.14;58.58;101386.91;5056451;28;45623;-86
2021/08/28 01:39:14;;;;;;;;;2.75;2.00;;;;;17.13;58.85;101397.63;5038748;28;45977;-87
2021/08/28 01:41:42;;;;;;;;;4.00;3.00;;;;;17.11;58.91;101383.72;5057348;28;45649;-87
2021/08/28 01:44:10;;;;;;;;;4.75;3.00;;;;;16.82;58.98;101340.34;5041188;28;47182;-84
2021/08/28 01:46:42;;;;;;;;;3.00;2.00;;;;;17.08;58.60;101378.66;5059962;28;45672;-85
2021/08/28 01:49:09;;;;;;;;;2.50;2.25;;;;;16.88;58.76;101353.91;5039505;28;45597;-85
2021/08/28 01:51:38;;;;;;;;;2.50;2.00;;;;;16.83;58.70;101345.53;5056835;28;46888;-83
2021/08/28 01:54:04;;;;;;;;;2.00;2.00;;;;;16.73;58.70;101323.47;5056859;28;46359;-84
2021/08/28 01:56:31;;;;;;;;;3.00;3.00;;;;;17.10;58.86;101392.63;5038712;28;45728;-85
2021/08/28 01:58:57;;;;;;;;;3.75;2.00;;;;;17.10;58.58;101385.50;5071853;28;45598;-84
2021/08/28 02:01:23;;;;;;;;;3.25;3.00;;;;;17.11;58.44;101376.56;5057672;28;46524;-85
2021/08/28 02:03:49;;;;;;;;;2.75;2.00;;;;;16.85;58.59;101346.22;5045978;28;47355;-85
2021/08/28 02:06:55;;;;;;;;;2.75;2.00;;;;;17.11;58.42;101392.47;5065734;28;45827;-86
2021/08/28 02:09:26;;;;;;;;;5.25;3.00;;;;;17.11;58.72;101392.47;5046086;28;45563;-86
2021/08/28 02:11:59;;;;;;;;;1.50;1.00;;;;;16.92;59.11;101359.75;5063476;28;45689;-85
2021/08/28 02:14:33;;;;;;;;;3.00;3.00;;;;;16.72;58.83;101332.38;5059470;28;45646;-86
2021/08/28 02:17:03;;;;;;;;;2.00;2.00;;;;;16.90;58.79;101362.53;5040118;28;45862;-85
2021/08/28 02:19:33;;;;;;;;;4.00;3.00;;;;;17.06;58.81;101397.31;5072653;28;45957;-84
2021/08/28 02:22:02;;;;;;;;;4.50;2.00;;;;;16.80;58.80;101345.75;5037025;28;48601;-84
2021/08/28 02:24:34;;;;;;;;;3.00;2.00;;;;;16.75;59.06;101345.31;5059088;28;45977;-84
2021/08/28 02:27:11;;;;;;;;;2.75;2.00;;;;;16.91;58.84;101373.97;5063517;28;45676;-85
2021/08/28 02:29:43;;;;;;;;;5.00;2.00;;;;;16.89;58.74;101365.34;5062651;28;45515;-84
2021/08/28 02:32:09;;;;;;;;;4.25;3.50;;;;;16.77;58.92;101353.97;5043682;28;47250;-84
2021/08/28 02:34:35;;;;;;;;;5.50;3.00;;;;;16.70;58.91;101344.88;5071788;28;48549;-84
2021/08/28 02:37:02;;;;;;;;;4.75;2.75;;;;;16.66;59.29;101336.38;5037136;28;45721;-84
2021/08/28 02:39:29;;;;;;;;;3.00;2.75;;;;;17.01;59.18;101401.31;5055214;28;45593;-84
2021/08/28 02:41:58;;;;;;;;;5.00;2.00;;;;;16.91;59.31;101385.38;5036527;28;47492;-84
2021/08/28 02:44:26;;;;;;;;;4.00;2.25;;;;;16.96;59.27;101403.53;5054594;28;46673;-84
2021/08/28 02:46:53;;;;;;;;;2.75;2.25;;;;;16.55;59.19;101340.84;5054819;28;45647;-84
2021/08/28 02:49:22;;;;;;;;;4.75;2.25;;;;;16.88;58.99;101393.59;5070460;28;45847;-85
2021/08/28 02:51:49;;;;;;;;;1.50;0.00;;;;;16.92;59.20;101410.91;5036100;28;47577;-82
2021/08/28 02:54:17;;;;;;;;;4.00;2.00;;;;;16.74;58.99;101367.44;5036221;28;48248;-84
2021/08/28 02:56:46;;;;;;;;;3.00;3.00;;;;;16.89;59.48;101399.75;5036194;28;46071;-84
2021/08/28 02:59:14;;;;;;;;;5.00;2.00;;;;;16.52;59.72;101330.53;5054623;28;45638;-84
2021/08/28 03:01:40;;;;;;;;;3.00;2.75;;;;;16.73;59.40;101377.19;5069694;28;48415;-83
2021/08/28 03:04:06;;;;;;;;;2.25;1.25;;;;;16.75;59.54;101385.84;5054854;28;46164;-84
2021/08/28 03:06:32;;;;;;;;;4.00;2.00;;;;;16.70;59.78;101384.56;5069961;28;45586;-84
2021/08/28 03:08:58;;;;;;;;;2.00;1.25;;;;;16.66;59.92;101383.16;5070116;28;46043;-85
2021/08/28 03:11:24;;;;;;;;;3.00;3.00;;;;;16.42;59.98;101340.19;5035893;28;49013;-85
2021/08/28 03:13:50;;;;;;;;;3.00;2.50;;;;;16.52;59.80;101373.69;5069162;28;48366;-85
2021/08/28 03:16:19;;;;;;;;;4.00;3.50;;;;;16.19;59.83;101331.56;5035997;28;45865;-84
2021/08/28 03:18:48;;;;;;;;;4.00;2.75;;;;;16.47;60.37;101386.44;5054374;28;45667;-84
2021/08/28 03:21:15;;;;;;;;;2.00;2.00;;;;;16.11;60.43;101334.81;5054457;28;45852;-84
2021/08/28 03:23:43;;;;;;;;;4.00;2.50;;;;;15.92;60.36;101305.59;5053966;28;46293;-86
2021/08/28 03:29:32;;;;;;;;;2.00;2.00;;;;;16.24;60.88;101382.25;5051961;28;45605;-85
2021/08/28 03:32:00;;;;;;;;;2.00;1.75;;;;;16.08;60.98;101377.38;5035615;28;48461;-83
2021/08/28 03:34:25;;;;;;;;;5.75;4.00;;;;;16.14;60.65;101387.44;5053727;28;45603;-84
2021/08/28 03:36:51;;;;;;;;;3.50;3.00;;;;;16.04;61.21;101372.44;5035997;28;45894;-84
2021/08/28 03:39:16;;;;;;;;;4.00;3.00;;;;;15.66;60.94;101320.91;5069982;28;45822;-84
2021/08/28 03:41:42;;;;;;;;;3.00;2.75;;;;;15.91;60.87;101359.41;5034440;28;47438;-84
2021/08/28 03:44:13;;;;;;;;;4.25;3.25;;;;;15.97;61.33;101376.56;5035195;28;46059;-83
2021/08/28 03:46:39;;;;;;;;;3.00;3.00;;;;;15.91;61.74;101377.91;5053723;28;45641;-84
2021/08/28 03:49:04;;;;;;;;;4.00;2.75;;;;;15.77;61.70;101355.22;5070488;28;46098;-84
2021/08/28 03:51:30;;;;;;;;;3.50;3.00;;;;;15.65;61.58;101350.97;5036190;28;46731;-85
2021/08/28 03:53:55;;;;;;;;;5.00;3.00;;;;;15.55;61.76;101326.22;5054408;28;46430;-84
2021/08/28 03:59:42;;;;;;;;;3.25;3.00;;;;;15.71;62.29;101368.13;5058092;28;45852;-84
2021/08/28 04:02:10;;;;;;;;;2.75;2.75;;;;;15.52;62.50;101345.81;5061308;28;46775;-87
2021/08/28 04:04:36;;;;;;;;;7.00;3.75;;;;;15.27;62.33;101310.88;5062206;28;46019;-85
2021/08/28 04:07:02;;;;;;;;;4.00;3.00;;;;;15.66;62.26;101383.47;5061859;28;45927;-83
2021/08/28 04:09:27;;;;;;;;;3.50;2.75;;;;;15.30;62.28;101326.47;5060048;28;45493;-82
2021/08/28 04:11:53;;;;;;;;;4.75;3.00;;;;;15.64;62.52;101391.53;5040148;28;47422;-84
2021/08/28 04:14:18;;;;;;;;;4.25;3.75;;;;;15.46;62.70;101348.06;5038409;28;47258;-84
2021/08/28 04:16:44;;;;;;;;;3.25;2.50;;;;;15.11;62.69;101298.06;5053553;28;45702;-84
2021/08/28 04:19:09;;;;;;;;;3.00;2.75;;;;;15.55;62.78;101375.59;5069327;28;45958;-84
2021/08/28 04:21:35;;;;;;;;;3.75;2.00;;;;;15.38;63.08;101355.78;5036537;28;47581;-84
2021/08/28 04:24:00;;;;;;;;;3.00;3.00;;;;;15.56;63.01;101387.81;5056262;28;45934;-83
2021/08/28 04:29:47;;;;;;;;;3.75;2.75;;;;;15.28;63.30;101355.63;5055241;28;45614;-84
2021/08/28 04:32:12;;;;;;;;;5.00;3.00;;;;;15.50;63.42;101397.88;5037909;28;46748;-84
2021/08/28 04:34:38;;;;;;;;;3.00;2.00;;;;;15.27;63.05;101353.97;5071514;28;45968;-85
2021/08/28 04:37:03;;;;;;;;;3.50;3.50;;;;;15.26;63.50;101364.66;5036081;28;45698;-83
2021/08/28 04:39:29;;;;;;;;;3.75;3.00;;;;;15.48;63.14;101396.34;5035363;28;46019;-84
2021/08/28 04:41:54;;;;;;;;;4.00;3.75;;;;;15.12;63.30;101326.13;5056748;28;45564;-84
2021/08/28 04:44:20;;;;;;;;;4.25;3.00;;;;;15.47;63.54;101392.84;5088736;28;47264;-84
2021/08/28 04:46:48;;;;;;;;;3.25;3.00;;;;;15.25;63.69;101350.59;5069670;28;45755;-83
2021/08/28 04:49:16;;;;;;;;;2.25;2.00;;;;;15.46;63.43;101393.81;5067709;28;45686;-85
2021/08/28 04:51:41;;;;;;;;;2.00;2.00;;;;;15.46;63.85;101395.59;5042777;28;47648;-84
2021/08/28 04:54:06;;;;;;;;;4.00;3.00;;;;;15.34;63.51;101372.78;5073272;28;46914;-84
2021/08/28 04:59:54;;;;;;;;;4.00;4.00;;;;;15.43;63.99;101399.34;5057460;28;45804;-83
2021/08/28 05:02:19;;;;;;;;;5.75;3.25;;;;;15.11;63.99;101348.22;5056456;28;45691;-84
2021/08/28 05:04:46;;;;;;;;;4.25;3.75;;;;;15.16;64.31;101361.06;5056410;28;45965;-85
2021/08/28 05:07:11;;;;;;;;;3.25;3.25;;;;;15.14;64.50;101363.81;5037968;28;46044;-85
2021/08/28 05:09:36;;;;;;;;;6.00;4.00;;;;;15.17;64.37;101366.19;5071555;28;45585;-84
2021/08/28 05:12:02;;;;;;;;;4.75;4.00;;;;;15.11;64.67;101364.88;5055618;28;46818;-81
2021/08/28 05:14:27;;;;;;;;;4.00;3.00;;;;;14.96;64.34;101346.75;5037632;28;46975;-83
2021/08/28 05:16:53;;;;;;;;;4.00;3.00;;;;;14.98;64.41;101350.97;5056162;28;45680;-83
2021/08/28 05:19:18;;;;;;;;;4.75;3.00;;;;;15.15;64.57;101368.13;5038346;28;45813;-83
2021/08/28 05:21:46;;;;;;;;;3.00;1.50;;;;;15.31;64.96;101402.09;5070812;28;47501;-85
2021/08/28 05:24:12;;;;;;;;;4.25;3.25;;;;;15.35;64.62;101406.16;5055693;28;46149;-83
2021/08/28 05:29:59;;;;;;;;;3.25;2.75;;;;;15.16;64.86;101369.81;5055807;28;45577;-83
2021/08/28 05:32:24;;;;;;;;;5.00;3.25;;;;;15.26;64.62;101385.78;5055838;28;46466;-84
2021/08/28 05:34:49;;;;;;;;;3.00;3.00;;;;;15.43;64.82;101406.41;5055880;28;45627;-83
2021/08/28 05:37:15;;;;;;;;;2.75;2.75;;;;;15.41;64.40;101398.59;5037480;28;45605;-83
2021/08/28 05:39:41;;;;;;;;;3.00;2.25;;;;;15.41;64.39;101387.19;5062233;28;45416;-82
2021/08/28 05:42:06;;;;;;;;;4.00;3.00;;;;;15.32;64.43;101372.94;5063383;28;46966;-83
2021/08/28 05:44:32;;;;;;;;;4.00;4.00;;;;;15.18;64.26;101346.75;5063332;28;45670;-83
2021/08/28 05:46:57;;;;;;;;;5.00;4.00;;;;;15.32;64.32;101366.81;5062749;28;45952;-84
2021/08/28 05:49:23;;;;;;;;;6.00;4.00;;;;;15.42;64.61;101373.88;5057035;28;45848;-81
2021/08/28 05:51:48;;;;;;;;;5.00;3.00;;;;;15.51;64.35;101390.78;5055416;28;45613;-84
2021/08/28 05:54:14;;;;;;;;;5.00;5.00;;;;;15.37;64.70;101375.22;5055608;28;45622;-82
2021/08/28 06:00:01;;;;;;;;;4.00;3.00;;;;;15.58;64.95;101410.53;5056786;28;45879;-84
2021/08/28 06:02:26;;;;;;;;;4.50;4.00;;;;;15.52;65.06;101401.28;5061538;28;46489;-83
2021/08/28 06:04:52;;;;;;;;;3.75;3.00;;;;;15.58;65.04;101407.03;5061622;28;46279;-82
2021/08/28 06:07:17;;;;;;;;;4.75;3.50;;;;;15.30;64.93;101359.00;5044425;28;46000;-84
2021/08/28 06:09:42;;;;;;;;;5.00;3.75;;;;;15.45;64.84;101381.56;5062155;28;45840;-83
2021/08/28 06:12:08;;;;;;;;;5.25;4.00;;;;;15.39;64.98;101370.63;5040103;28;46928;-85
2021/08/28 06:14:33;;;;;;;;;5.00;4.00;;;;;15.39;65.13;101381.19;5036847;28;46971;-82
2021/08/28 06:16:59;;;;;;;;;3.75;3.00;;;;;15.45;64.91;101386.84;5036511;28;45675;-83
2021/08/28 06:19:25;;;;;;;;;4.75;4.00;;;;;15.64;65.24;101415.31;5055380;28;45755;-83
2021/08/28 06:21:51;;;;;;;;;5.75;3.50;;;;;15.64;65.55;101420.59;5036742;28;48522;-84
2021/08/28 06:24:16;;;;;;;;;4.25;3.00;;;;;15.64;65.28;101409.19;5071043;28;47062;-84
2021/08/28 06:30:04;;;;;;;;;6.00;4.00;;;;;15.58;65.58;101399.94;5055604;28;45642;-83
2021/08/28 06:32:29;;;;;;;;;4.25;3.00;;;;;15.47;65.35;101382.28;5054675;28;46923;-82
2021/08/28 06:34:55;;;;;;;;;4.25;3.50;;;;;15.65;65.17;101408.25;5054493;28;46168;-82
2021/08/28 06:37:20;;;;;;;;;5.00;4.00;;;;;15.73;65.24;101430.44;5055087;28;45693;-83
2021/08/28 06:39:46;;;;;;;;;5.75;4.00;;;;;15.75;65.56;101417.09;5055688;28;45982;-84
2021/08/28 06:45:33;;;;;;;;;4.00;4.00;;;;;15.81;65.57;101427.19;5055165;28;46145;-85
2021/08/28 06:47:58;;;;;;;;;4.50;4.00;;;;;15.60;65.14;101376.88;5054706;28;45602;-83
2021/08/28 06:50:24;;;;;;;;;5.75;5.00;;;;;15.65;65.15;101387.94;5036579;28;46014;-84
2021/08/28 06:52:49;;;;;;;;;6.00;4.00;;;;;15.91;65.25;101422.84;5054434;28;46347;-86
2021/08/28 06:55:15;;;;;;;;;5.00;4.75;;;;;15.86;65.18;101412.66;5054309;28;45712;-85
2021/08/28 06:57:40;;;;;;;;;5.75;4.50;;;;;15.77;65.32;101394.88;5054162;28;45928;-82
2021/08/28 07:00:06;;;;;;;;;4.75;4.00;;;;;15.93;65.02;101420.91;5054408;28;45728;-84
2021/08/28 07:02:31;;;;;;;;;6.50;4.75;;;;;16.06;65.40;101426.03;5054294;28;46143;-83
2021/08/28 07:04:57;;;;;;;;;5.00;4.00;;;;;16.00;65.10;101414.16;5054460;28;45854;-82
2021/08/28 07:07:23;;;;;;;;;5.25;3.50;;;;;16.05;64.87;101411.16;5055578;28;45805;-86
2021/08/28 07:09:48;;;;;;;;;8.00;5.00;;;;;15.95;65.21;101388.09;5036579;28;45852;-85
2021/08/28 07:15:35;;;;;;;;;7.00;4.50;;;;;16.07;65.27;101402.13;5054688;28;45552;-83
2021/08/28 07:18:00;;;;;;;;;5.50;5.50;;;;;16.17;65.31;101407.50;5040923;28;45780;-84
2021/08/28 07:20:26;;;;;;;;;6.75;5.00;;;;;16.35;65.04;101427.16;5077261;28;45584;-84
2021/08/28 07:22:51;;;;;;;;;5.00;3.50;;;;;16.18;65.14;101391.53;5061322;28;46344;-84
2021/08/28 07:25:18;;;;;;;;;5.25;4.00;;;;;16.19;65.07;101389.72;5061728;28;45509;-82
2021/08/28 07:27:44;;;;;;;;;7.00;5.25;;;;;16.20;65.15;101375.50;5037906;28;45841;-84
2021/08/28 07:30:10;;;;;;;;;7.00;5.75;;;;;16.53;65.41;101422.97;5068980;28;45715;-85
2021/08/28 07:32:36;;;;;;;;;6.00;6.00;;;;;16.52;64.81;101416.00;5036035;28;48314;-85
2021/08/28 07:35:02;;;;;;;;;7.00;6.00;;;;;16.64;64.99;101422.97;5054151;28;46009;-82
2021/08/28 07:37:27;;;;;;;;;8.25;5.00;;;;;16.26;65.08;101346.78;5054410;28;45675;-83
2021/08/28 07:39:53;;;;;;;;;6.00;6.00;;;;;16.52;64.95;101378.16;5054452;28;45653;-84
2021/08/28 07:45:40;;;;;;;;;6.00;5.00;;;;;16.74;64.76;101402.69;5054416;28;46040;-84
2021/08/28 07:48:06;;;;;;;;;6.50;6.00;;;;;17.00;65.36;101439.38;5053752;28;45578;-83
2021/08/28 07:50:31;;;;;;;;;7.25;7.25;;;;;16.97;65.15;101416.66;5035663;28;45934;-84
2021/08/28 07:52:57;;;;;;;;;5.75;5.00;;;;;16.91;65.02;101395.13;5053767;28;45749;-83
2021/08/28 07:55:25;;;;;;;;;7.00;6.75;;;;;17.18;64.68;101424.56;5069155;28;47552;-84
2021/08/28 07:57:50;;;;;;;;;8.75;5.50;;;;;16.97;64.99;101392.81;5056680;28;45920;-86
2021/08/28 08:00:16;;;;;;;;;6.75;5.25;;;;;17.28;64.69;101437.84;5043519;28;45591;-83
2021/08/28 08:02:41;;;;;;;;;7.75;6.25;;;;;17.24;65.01;101410.78;5060259;28;47091;-85
2021/08/28 08:05:07;;;;;;;;;9.50;7.00;;;;;17.37;64.97;101429.97;5040788;28;47149;-87
2021/08/28 08:07:33;;;;;;;;;6.50;6.25;;;;;17.27;64.59;101402.59;5074724;28;45821;-85
2021/08/28 08:09:58;;;;;;;;;7.75;5.00;;;;;17.48;64.66;101434.34;5037386;28;45607;-82
2021/08/28 08:15:45;;;;;;;;;10.25;8.00;;;;;17.39;65.05;101404.16;5053749;28;45730;-84
2021/08/28 08:18:11;;;;;;;;;6.75;6.00;;;;;17.50;64.79;101427.91;5035597;28;45944;-84
2021/08/28 08:20:37;;;;;;;;;6.75;6.75;;;;;17.48;64.58;101406.03;5035674;28;45984;-84
2021/08/28 08:23:03;;;;;;;;;7.75;6.75;;;;;17.48;64.59;101397.25;5035108;28;46472;-84
2021/08/28 08:25:30;;;;;;;;;9.00;6.50;;;;;17.75;64.79;101447.03;5068890;28;47786;-82
2021/08/28 08:27:55;;;;;;;;;6.75;5.75;;;;;17.65;64.46;101419.66;5055219;28;46026;-82
2021/08/28 08:30:20;;;;;;;;;6.75;6.75;;;;;17.73;65.15;101427.75;5056549;28;45591;-85
2021/08/28 08:32:46;;;;;;;;;7.75;6.25;;;;;17.82;65.04;101435.72;5056957;28;45589;-83
2021/08/28 08:35:11;;;;;;;;;6.25;5.25;;;;;17.53;65.25;101389.72;5072153;28;46926;-84
2021/08/28 08:37:37;;;;;;;;;9.00;7.00;;;;;17.86;65.01;101439.81;5057202;28;46354;-83
2021/08/28 08:40:03;;;;;;;;;6.25;5.75;;;;;17.84;64.72;101425.00;5057313;28;45708;-83
2021/08/28 08:45:51;;;;;;;;;7.25;6.25;;;;;17.87;64.51;101414.94;5059523;28;45854;-83
2021/08/28 08:48:17;;;;;;;;;7.75;6.75;;;;;17.98;65.17;101422.78;5062193;28;45874;-84
2021/08/28 08:50:46;;;;;;;;;8.25;6.25;;;;;17.87;64.93;101411.44;5064240;28;45598;-85
2021/08/28 08:53:17;;;;;;;;;6.50;6.50;;;;;17.74;64.60;101387.88;5064041;28;45658;-87
2021/08/28 08:55:43;;;;;;;;;8.25;6.00;;;;;17.93;65.01;101398.50;5043870;28;47206;-85
2021/08/28 08:58:08;;;;;;;;;6.25;6.00;;;;;18.14;64.49;101437.34;5064308;28;45667;-84
2021/08/28 09:00:35;;;;;;;;;8.00;8.00;;;;;17.85;64.26;101373.66;5079588;28;45546;-83
2021/08/28 09:03:00;;;;;;;;;5.25;5.00;;;;;18.18;64.49;101420.19;5063582;28;45837;-83
2021/08/28 09:05:26;;;;;;;;;6.00;5.00;;;;;18.03;64.67;101391.38;5063245;28;46327;-83
2021/08/28 09:07:51;;;;;;;;;7.50;6.50;;;;;18.20;64.74;101403.13;5039550;28;45651;-84
2021/08/28 09:10:17;;;;;;;;;7.75;5.75;;;;;18.44;64.49;101429.25;5057043;28;45583;-84
2021/08/28 09:16:07;;;;;;;;;6.00;4.00;;;;;18.55;64.58;101437.13;5056708;28;46216;-81
2021/08/28 09:18:51;;;;;;;;;5.50;4.50;;;;;18.61;64.02;101430.41;5058124;28;45742;-83
2021/08/28 09:21:20;;;;;;;;;6.25;4.00;;;;;18.65;63.77;101437.09;5040085;28;45879;-83
2021/08/28 09:23:46;;;;;;;;;5.50;4.25;;;;;18.68;63.27;101434.16;5073572;28;47694;-83
2021/08/28 09:26:33;;;;;;;;;3.50;3.25;;;;;18.73;63.61;101434.59;5057051;28;45578;-84
2021/08/28 09:28:58;;;;;;;;;5.50;4.50;;;;;18.76;62.86;101436.97;5038159;28;46064;-83
2021/08/28 09:31:48;;;;;;;;;4.75;4.25;;;;;18.52;63.07;101391.38;5039161;28;45731;-82
2021/08/28 09:34:28;;;;;;;;;4.50;4.00;;;;;18.86;63.04;101443.94;5057828;28;46586;-83
2021/08/28 09:37:05;;;;;;;;;7.00;5.00;;;;;18.77;62.89;101420.06;5054792;28;48410;-83
2021/08/28 09:39:37;;;;;;;;;5.50;5.00;;;;;18.99;62.42;101448.13;5055362;28;45718;-82
2021/08/28 09:42:04;;;;;;;;;5.50;4.50;;;;;18.90;62.56;101419.72;5055876;28;45665;-82
2021/08/28 09:44:36;;;;;;;;;4.00;4.00;;;;;18.86;61.83;101409.41;5055593;28;46687;-84
2021/08/28 09:47:22;;;;;;;;;4.75;4.00;;;;;19.16;61.92;101437.56;5055993;28;45909;-84
2021/08/28 09:49:50;;;;;;;;;4.25;3.25;;;;;19.11;61.59;101423.88;5056172;28;45653;-84
2021/08/28 09:52:19;;;;;;;;;4.75;3.75;;;;;19.16;61.53;101421.63;5037541;28;45777;-82
2021/08/28 09:54:45;;;;;;;;;4.00;3.50;;;;;19.22;61.49;101436.16;5038556;28;46843;-82
2021/08/28 09:57:10;;;;;;;;;3.50;3.25;;;;;19.05;60.74;101389.94;5060690;28;45639;-82
2021/08/28 09:59:36;;;;;;;;;3.25;3.00;;;;;19.05;61.01;101391.78;5060805;28;45624;-82
2021/08/28 10:02:06;;;;;;;;;4.00;3.00;;;;;19.28;60.81;101420.47;5061785;28;45621;-82
2021/08/28 10:04:58;;;;;;;;;3.25;2.50;;;;;19.41;60.80;101441.41;5062388;28;45625;-84
2021/08/28 10:07:32;;;;;;;;;3.75;3.75;;;;;19.47;60.52;101438.22;5060038;28;46079;-83
2021/08/28 10:09:59;;;;;;;;;3.25;3.00;;;;;19.41;60.61;101409.53;5058821;28;45629;-83
2021/08/28 10:12:26;;;;;;;;;3.00;3.00;;;;;19.62;60.29;101431.44;5057609;28;45567;-83
2021/08/28 10:14:54;;;;;;;;;4.75;3.75;;;;;19.67;60.20;101426.50;5059026;28;46688;-83
2021/08/28 10:17:22;;;;;;;;;4.00;3.00;;;;;19.56;59.81;101404.59;5057798;28;45590;-84
2021/08/28 10:19:51;;;;;;;;;3.00;3.00;;;;;19.64;59.78;101410.84;5040231;28;45715;-83
2021/08/28 10:22:20;;;;;;;;;4.00;3.25;;;;;19.81;59.54;101424.34;5068735;28;45697;-81
2021/08/28 10:24:50;;;;;;;;;2.75;2.75;;;;;19.64;59.56;101383.44;5061244;28;47428;-83
2021/08/28 10:27:17;;;;;;;;;4.75;3.00;;;;;19.75;59.15;101393.88;5081393;28;45599;-82
2021/08/28 10:29:44;;;;;;;;;5.75;4.00;;;;;19.81;59.01;101395.91;5077601;28;45362;-83
2021/08/28 10:32:10;;;;;;;;;5.25;3.75;;;;;20.09;58.97;101431.28;5077836;28;45669;-84
2021/08/28 10:34:35;;;;;;;;;3.25;3.00;;;;;19.82;58.55;101372.81;5082120;28;45848;-83
2021/08/28 10:37:01;;;;;;;;;5.00;4.00;;;;;20.02;58.59;101407.13;5082148;28;45422;-83
2021/08/28 10:39:27;;;;;;;;;4.00;4.00;;;;;20.14;58.31;101426.34;5080664;28;45481;-82
2021/08/28 10:41:54;;;;;;;;;2.75;2.75;;;;;20.26;58.52;101443.78;5080324;28;45759;-84
2021/08/28 10:44:20;;;;;;;;;2.00;2.00;;;;;20.19;58.22;101421.41;5058594;28;47468;-83
2021/08/28 10:46:45;;;;;;;;;4.25;3.00;;;;;20.25;58.28;101427.94;5054527;28;47007;-85
2021/08/28 10:49:12;;;;;;;;;4.00;3.00;;;;;20.20;58.09;101403.63;5070594;28;45536;-87
2021/08/28 10:51:44;;;;;;;;;4.50;3.00;;;;;20.35;57.96;101432.25;5061049;28;45818;-85
2021/08/28 10:54:13;;;;;;;;;3.00;3.00;;;;;20.29;58.05;101416.03;5059306;28;45712;-83
2021/08/28 10:56:55;;;;;;;;;4.00;3.25;;;;;20.41;57.81;101433.47;5058116;28;45911;-83
2021/08/28 10:59:29;;;;;;;;;4.50;3.00;;;;;20.46;57.66;101425.84;5057635;28;45683;-83
2021/08/28 11:01:59;;;;;;;;;3.25;3.00;;;;;20.51;57.45;101423.59;5058921;28;45772;-84
2021/08/28 11:04:36;;;;;;;;;2.50;2.50;;;;;20.43;57.28;101400.38;5078399;28;47686;-86
2021/08/28 11:07:26;;;;;;;;;2.00;2.00;;;;;20.60;57.33;101422.66;5058826;28;45570;-84
2021/08/28 11:10:02;;;;;;;;;1.75;1.75;;;;;20.63;56.77;101421.50;5063003;28;45674;-85
2021/08/28 11:12:28;;;;;;;;;3.00;2.00;;;;;20.50;56.71;101398.78;5057527;28;45501;-84
2021/08/28 11:14:53;;;;;;;;;1.50;1.50;;;;;20.59;56.02;101406.84;5057070;28;45705;-83
2021/08/28 11:17:36;;;;;;;;;4.00;4.00;;;;;20.62;56.17;101404.69;5073518;28;45943;-83
2021/08/28 11:20:02;;;;;;;;;4.00;3.75;;;;;20.64;56.35;101402.72;5062701;28;45699;-82
2021/08/28 11:22:35;;;;;;;;;3.25;3.00;;;;;20.63;56.21;101393.03;5044589;28;45852;-84
2021/08/28 11:25:05;;;;;;;;;5.00;3.00;;;;;20.70;56.48;101407.44;5058440;28;46004;-83
2021/08/28 11:27:47;;;;;;;;;3.00;2.00;;;;;20.84;55.88;101408.69;5068656;28;45920;-82
2021/08/28 11:30:14;;;;;;;;;3.00;2.25;;;;;20.94;55.75;101420.91;5062966;28;45622;-82
2021/08/28 11:32:40;;;;;;;;;2.75;2.00;;;;;20.99;55.84;101417.81;5060628;28;45755;-82
2021/08/28 11:35:06;;;;;;;;;3.00;3.00;;;;;20.99;55.64;101416.97;5065587;28;45462;-83
2021/08/28 11:37:31;;;;;;;;;4.25;3.25;;;;;21.06;55.65;101421.47;5070595;28;45511;-82
2021/08/28 11:40:23;;;;;;;;;2.00;2.00;;;;;21.10;55.24;101419.38;5068082;28;45089;-83
2021/08/28 11:42:49;;;;;;;;;3.00;3.00;;;;;20.96;55.82;101396.78;5062097;28;45561;-82
2021/08/28 11:45:17;;;;;;;;;3.00;2.00;;;;;21.03;55.07;101397.84;5059889;28;45375;-84
2021/08/28 11:47:42;;;;;;;;;3.50;3.50;;;;;21.22;54.79;101410.13;5059978;28;45637;-82
2021/08/28 11:50:08;;;;;;;;;3.50;3.00;;;;;21.03;55.04;101394.31;5061326;28;45673;-84
2021/08/28 11:52:35;;;;;;;;;4.25;2.75;;;;;21.21;54.41;101400.47;5060230;28;45606;-82
2021/08/28 11:55:02;;;;;;;;;3.00;3.00;;;;;21.22;54.10;101392.28;5058775;28;45932;-84
2021/08/28 11:57:34;;;;;;;;;5.25;3.00;;;;;21.12;54.67;101367.56;5070923;28;47416;-83
2021/08/28 12:00:01;;;;;;;;;3.00;3.00;;;;;21.36;54.75;101382.88;5057670;28;45834;-85
2021/08/28 12:02:26;;;;;;;;;3.00;3.00;;;;;21.40;54.35;101389.56;5059203;28;45578;-82
2021/08/28 12:04:52;;;;;;;;;4.75;3.25;;;;;21.35;54.61;101376.72;5059475;28;45583;-81
2021/08/28 12:07:17;;;;;;;;;4.25;3.00;;;;;21.29;54.71;101363.19;5074953;28;47314;-82
2021/08/28 12:09:43;;;;;;;;;2.00;2.00;;;;;21.30;54.37;101362.19;5061887;28;45637;-85
2021/08/28 12:12:09;;;;;;;;;4.00;3.75;;;;;21.51;54.82;101383.09;5080190;28;45937;-84
2021/08/28 12:14:35;;;;;;;;;4.00;3.00;;;;;21.60;54.27;101398.97;5065056;28;46654;-82
2021/08/28 12:17:01;;;;;;;;;3.75;2.50;;;;;21.65;54.00;101398.47;5065729;28;45872;-83